createdAt,value
2022-08-19T00:01:53.284Z,12.23
2022-08-19T00:04:39.224Z,17.63
2022-08-19T00:07:24.375Z,14.05
2022-08-19T00:10:12.598Z,15.23
2022-08-19T00:12:57.485Z,16.60
2022-08-19T00:15:45.624Z,12.45
2022-08-19T00:18:30.538Z,13.45
2022-08-19T00:21:16.521Z,14.02
2022-08-19T00:24:02.093Z,13.32
2022-08-19T00:26:47.306Z,11.57
2022-08-19T00:29:32.409Z,14.02
2022-08-19T00:32:18.132Z,20.75
2022-08-19T00:35:04.864Z,11.88
2022-08-19T00:37:50.832Z,13.45
2022-08-19T00:40:36.405Z,20.35
2022-08-19T00:43:24.053Z,17.17
2022-08-19T00:46:09.492Z,15.50
2022-08-19T00:48:56.804Z,13.60
2022-08-19T00:51:43.050Z,15.27
2022-08-19T00:54:39.918Z,14.94
2022-08-19T00:57:36.046Z,12.57
2022-08-19T01:00:24.160Z,14.15
2022-08-19T01:03:12.909Z,14.40
2022-08-19T01:05:57.912Z,11.05
2022-08-19T01:08:43.391Z,14.55
2022-08-19T01:11:30.996Z,17.35
2022-08-19T01:14:17.682Z,15.20
2022-08-19T01:17:03.306Z,12.90
2022-08-19T01:19:49.139Z,14.13
2022-08-19T01:22:46.154Z,12.15
2022-08-19T01:25:36.495Z,11.07
2022-08-19T01:28:33.820Z,12.95
2022-08-19T01:31:26.987Z,14.38
2022-08-19T01:34:12.751Z,15.27
2022-08-19T01:36:58.154Z,18.23
2022-08-19T01:39:44.329Z,18.70
2022-08-19T01:42:30.840Z,18.45
2022-08-19T01:45:17.569Z,21.13
2022-08-19T01:48:03.524Z,16.15
2022-08-19T01:50:48.924Z,17.90
2022-08-19T01:53:34.526Z,14.23
2022-08-19T01:56:20.046Z,11.13
2022-08-19T01:59:11.695Z,12.32
2022-08-19T02:01:56.716Z,17.63
2022-08-19T02:04:41.965Z,21.42
2022-08-19T02:07:29.234Z,17.48
2022-08-19T02:10:20.298Z,12.85
2022-08-19T02:13:05.494Z,14.65
2022-08-19T02:15:50.643Z,15.23
2022-08-19T02:18:36.110Z,13.73
2022-08-19T02:21:23.398Z,15.10
2022-08-19T02:24:08.412Z,12.15
2022-08-19T02:26:53.837Z,18.20
2022-08-19T02:29:38.862Z,19.45
2022-08-19T02:32:24.034Z,13.73
2022-08-19T02:35:12.422Z,15.00
2022-08-19T02:38:16.529Z,10.00
2022-08-19T02:41:05.396Z,10.77
2022-08-19T02:44:28.548Z,13.77
2022-08-19T02:46:56.393Z,15.63
2022-08-19T02:49:42.108Z,9.60
2022-08-19T02:52:28.363Z,9.35
2022-08-19T02:55:13.593Z,15.32
2022-08-19T02:57:58.657Z,15.68
2022-08-19T03:00:46.626Z,13.85
2022-08-19T03:03:32.861Z,10.40
2022-08-19T03:06:18.412Z,14.23
2022-08-19T03:09:03.674Z,11.95
2022-08-19T03:11:48.997Z,10.30
2022-08-19T03:14:38.158Z,9.93
2022-08-19T03:17:23.179Z,11.75
2022-08-19T03:20:08.871Z,11.15
2022-08-19T03:22:54.233Z,7.88
2022-08-19T03:25:46.528Z,9.10
2022-08-19T03:28:49.519Z,5.15
2022-08-19T03:31:45.549Z,5.82
2022-08-19T03:34:39.321Z,7.55
2022-08-19T03:37:24.538Z,7.93
2022-08-19T03:40:16.354Z,7.15
2022-08-19T03:43:02.007Z,6.10
2022-08-19T03:45:47.914Z,6.50
2022-08-19T03:48:33.959Z,13.38
2022-08-19T03:51:30.668Z,6.13
2022-08-19T03:54:20.187Z,7.13
2022-08-19T03:57:05.253Z,6.97
2022-08-19T03:59:50.727Z,10.55
2022-08-19T04:02:35.799Z,9.70
2022-08-19T04:05:21.561Z,9.07
2022-08-19T04:08:14.001Z,7.85
2022-08-19T04:10:59.250Z,5.82
2022-08-19T04:13:45.341Z,5.05
2022-08-19T04:16:34.977Z,8.82
2022-08-19T04:19:21.194Z,6.10
2022-08-19T04:22:06.379Z,8.13
2022-08-19T04:24:51.463Z,11.18
2022-08-19T04:27:36.500Z,6.20
2022-08-19T04:30:23.485Z,6.50
2022-08-19T04:33:09.586Z,8.15
2022-08-19T04:35:54.526Z,5.03
2022-08-19T04:38:39.755Z,5.50
2022-08-19T04:41:44.664Z,5.82
2022-08-19T04:44:33.290Z,8.20
2022-08-19T04:47:20.157Z,4.07
2022-08-19T04:50:27.113Z,5.50
2022-08-19T04:53:12.062Z,6.85
2022-08-19T04:55:58.624Z,4.55
2022-08-19T04:58:45.256Z,8.35
2022-08-19T05:01:33.229Z,6.40
2022-08-19T05:04:21.531Z,5.25
2022-08-19T05:07:08.885Z,5.88
2022-08-19T05:09:58.390Z,7.15
2022-08-19T05:12:44.121Z,5.63
2022-08-19T05:15:29.225Z,7.78
2022-08-19T05:18:32.996Z,6.47
2022-08-19T05:21:39.189Z,7.72
2022-08-19T05:24:24.875Z,7.82
2022-08-19T05:27:10.165Z,7.57
2022-08-19T05:29:55.589Z,9.88
2022-08-19T05:32:41.267Z,6.75
2022-08-19T05:35:26.513Z,5.07
2022-08-19T05:38:12.097Z,4.95
2022-08-19T05:40:58.577Z,4.05
2022-08-19T05:43:43.926Z,4.90
2022-08-19T05:46:29.172Z,5.72
2022-08-19T05:49:16.663Z,3.35
2022-08-19T05:52:11.760Z,4.20
2022-08-19T05:54:57.807Z,3.45
2022-08-19T05:57:42.953Z,5.50
2022-08-19T06:00:28.606Z,6.35
2022-08-19T06:03:13.565Z,6.97
2022-08-19T06:06:00.396Z,3.92
2022-08-19T06:08:51.615Z,4.18
2022-08-19T06:11:46.125Z,4.35
2022-08-19T06:14:35.101Z,4.57
2022-08-19T06:17:26.622Z,4.72
2022-08-19T06:20:15.790Z,4.20
2022-08-19T06:23:00.810Z,5.28
2022-08-19T06:25:45.992Z,4.18
2022-08-19T06:28:31.150Z,4.18
2022-08-19T06:31:21.953Z,3.90
2022-08-19T06:34:07.077Z,3.92
2022-08-19T06:36:53.382Z,4.50
2022-08-19T06:39:40.193Z,7.45
2022-08-19T06:42:25.562Z,4.38
2022-08-19T06:45:11.251Z,4.82
2022-08-19T06:47:57.046Z,6.15
2022-08-19T06:50:42.078Z,3.42
2022-08-19T06:53:29.040Z,3.25
2022-08-19T06:56:16.581Z,2.30
2022-08-19T06:59:07.968Z,3.42
2022-08-19T07:01:55.262Z,4.82
2022-08-19T07:04:42.677Z,3.28
2022-08-19T07:07:27.826Z,2.50
2022-08-19T07:10:13.029Z,14.13
2022-08-19T07:12:58.326Z,3.50
2022-08-19T07:15:44.336Z,6.25
2022-08-19T07:18:29.304Z,4.45
2022-08-19T07:21:17.581Z,4.50
2022-08-19T07:24:05.416Z,3.35
2022-08-19T07:26:54.899Z,2.25
2022-08-19T07:29:39.860Z,5.43
2022-08-19T07:32:28.432Z,2.28
2022-08-19T07:35:13.449Z,2.92
2022-08-19T07:38:00.149Z,1.80
2022-08-19T07:40:46.853Z,0.98
2022-08-19T07:43:34.836Z,2.15
2022-08-19T07:46:23.782Z,1.38
2022-08-19T07:49:20.086Z,0.98
2022-08-19T07:52:08.952Z,1.25
2022-08-19T07:54:53.863Z,1.03
2022-08-19T07:57:39.822Z,1.13
2022-08-19T08:00:25.011Z,2.75
2022-08-19T08:03:15.718Z,1.25
2022-08-19T08:06:19.663Z,2.63
2022-08-19T08:09:12.418Z,2.85
2022-08-19T08:12:32.873Z,1.88
2022-08-19T08:15:17.291Z,2.13
2022-08-19T08:18:02.433Z,2.20
2022-08-19T08:20:47.841Z,1.77
2022-08-19T08:23:32.689Z,1.13
2022-08-19T08:26:19.386Z,0.57
2022-08-19T08:29:12.232Z,3.22
2022-08-19T08:31:58.662Z,0.52
2022-08-19T08:34:45.364Z,3.35
2022-08-19T08:37:35.170Z,4.75
2022-08-19T08:40:44.647Z,2.65
2022-08-19T08:43:34.225Z,1.42
2022-08-19T08:46:30.769Z,1.40
2022-08-19T08:49:44.605Z,0.50
2022-08-19T08:52:36.961Z,0.55
2022-08-19T08:55:36.857Z,1.67
2022-08-19T08:58:32.647Z,3.17
2022-08-19T09:01:18.114Z,1.73
2022-08-19T09:04:08.284Z,1.08
2022-08-19T09:07:36.007Z,2.95
2022-08-19T09:10:56.438Z,1.55
2022-08-19T09:14:23.560Z,1.00
2022-08-19T09:17:16.681Z,2.00
2022-08-19T09:20:16.814Z,5.70
2022-08-19T09:23:02.885Z,0.88
2022-08-19T09:25:47.984Z,1.73
2022-08-19T09:28:33.273Z,1.17
2022-08-19T09:31:22.355Z,1.90
2022-08-19T09:34:07.231Z,0.73
2022-08-19T09:36:54.137Z,1.38
2022-08-19T09:39:41.898Z,2.17
2022-08-19T09:42:30.039Z,1.48
2022-08-19T09:45:22.881Z,0.60
2022-08-19T09:48:07.860Z,0.60
2022-08-19T09:50:54.824Z,1.13
2022-08-19T09:53:40.187Z,1.60
2022-08-19T09:56:25.524Z,0.93
2022-08-19T09:59:11.331Z,1.42
2022-08-19T10:01:56.759Z,1.40
2022-08-19T10:05:07.877Z,4.65
2022-08-19T10:07:53.399Z,3.38
2022-08-19T10:10:38.532Z,2.00
2022-08-19T10:13:31.074Z,1.13
2022-08-19T10:16:19.752Z,0.55
2022-08-19T10:19:06.084Z,1.02
2022-08-19T10:21:51.330Z,1.95
2022-08-19T10:24:36.426Z,0.65
2022-08-19T10:27:22.264Z,0.52
2022-08-19T10:30:10.051Z,0.70
2022-08-19T10:35:42.662Z,1.10
2022-08-19T10:38:51.232Z,1.73
2022-08-19T10:41:41.164Z,1.10
2022-08-19T10:44:32.097Z,0.68
2022-08-19T10:47:25.714Z,1.45
2022-08-19T10:50:30.161Z,2.65
2022-08-19T10:53:15.120Z,1.13
2022-08-19T10:56:18.620Z,1.42
2022-08-19T10:59:04.470Z,2.50
2022-08-19T11:01:50.573Z,0.65
2022-08-19T11:04:40.130Z,1.50
2022-08-19T11:07:27.374Z,0.75
2022-08-19T11:10:18.226Z,1.70
2022-08-19T11:13:05.999Z,2.05
2022-08-19T11:16:06.795Z,3.60
2022-08-19T11:18:55.881Z,7.25
2022-08-19T11:21:43.873Z,4.38
2022-08-19T11:24:29.921Z,0.95
2022-08-19T11:27:15.253Z,5.82
2022-08-19T11:30:01.487Z,5.45
2022-08-19T11:32:51.920Z,2.98
2022-08-19T11:35:40.985Z,4.13
2022-08-19T11:38:26.909Z,1.40
2022-08-19T11:41:12.074Z,5.38
2022-08-19T11:43:57.410Z,5.75
2022-08-19T11:46:47.444Z,2.97
2022-08-19T11:49:32.756Z,4.47
2022-08-19T11:52:18.138Z,3.80
2022-08-19T11:55:03.649Z,4.45
2022-08-19T11:57:48.731Z,3.35
2022-08-19T12:00:36.389Z,4.97
2022-08-19T12:03:21.701Z,6.38
2022-08-19T12:06:09.810Z,3.78
2022-08-19T12:08:56.345Z,2.78
2022-08-19T12:11:41.981Z,3.55
2022-08-19T12:14:28.873Z,5.03
2022-08-19T12:17:14.328Z,5.75
2022-08-19T12:19:59.252Z,4.80
2022-08-19T12:22:44.605Z,3.72
2022-08-19T12:25:29.558Z,2.85
2022-08-19T12:28:14.841Z,4.35
2022-08-19T12:31:00.280Z,6.57
2022-08-19T12:33:47.677Z,3.42
2022-08-19T12:36:32.779Z,3.60
2022-08-19T12:39:18.406Z,4.55
2022-08-19T12:42:03.297Z,5.80
2022-08-19T12:44:48.537Z,5.15
2022-08-19T12:47:34.009Z,6.97
2022-08-19T12:50:23.293Z,3.95
2022-08-19T12:53:08.680Z,3.35
2022-08-19T12:55:58.396Z,5.57
2022-08-19T13:01:35.408Z,5.60
2022-08-19T13:04:20.810Z,6.20
2022-08-19T13:07:05.952Z,3.95
2022-08-19T13:09:52.856Z,5.88
2022-08-19T13:12:37.777Z,4.80
2022-08-19T13:15:24.508Z,6.15
2022-08-19T13:18:11.467Z,9.18
2022-08-19T13:20:57.402Z,7.68
2022-08-19T13:23:42.521Z,5.78
2022-08-19T13:26:27.853Z,4.50
2022-08-19T13:29:31.802Z,9.88
2022-08-19T13:32:35.801Z,5.80
2022-08-19T13:35:21.182Z,6.30
2022-08-19T13:38:11.972Z,8.27
2022-08-19T13:41:08.125Z,9.77
2022-08-19T13:43:55.719Z,14.07
2022-08-19T13:46:40.773Z,8.15
2022-08-19T13:49:25.975Z,10.48
2022-08-19T13:52:10.875Z,5.50
2022-08-19T13:54:57.412Z,8.65
2022-08-19T13:57:43.164Z,8.15
2022-08-19T14:00:31.635Z,12.45
2022-08-19T14:03:17.128Z,7.78
2022-08-19T14:06:02.860Z,8.52
2022-08-19T14:08:48.015Z,7.75
2022-08-19T14:11:33.237Z,7.85
2022-08-19T14:14:18.332Z,6.45
2022-08-19T14:17:07.090Z,6.13
2022-08-19T14:20:10.497Z,12.73
2022-08-19T14:22:56.434Z,11.02
2022-08-19T14:25:41.889Z,9.73
2022-08-19T14:28:28.310Z,8.98
2022-08-19T14:31:19.357Z,10.50
2022-08-19T14:34:04.489Z,4.95
2022-08-19T14:36:49.939Z,5.97
2022-08-19T14:39:35.300Z,3.58
2022-08-19T14:42:20.991Z,9.38
2022-08-19T14:45:07.221Z,8.30
2022-08-19T14:47:52.940Z,7.47
2022-08-19T14:50:38.445Z,5.88
2022-08-19T14:53:23.466Z,11.35
2022-08-19T14:56:11.805Z,5.40
2022-08-19T14:59:00.301Z,7.60
2022-08-19T15:01:45.591Z,6.60
2022-08-19T15:04:33.699Z,7.38
2022-08-19T15:07:19.068Z,5.17
2022-08-19T15:10:10.532Z,8.85
2022-08-19T15:12:55.833Z,6.97
2022-08-19T15:15:40.970Z,6.47
2022-08-19T15:18:26.319Z,9.80
2022-08-19T15:21:13.461Z,7.10
2022-08-19T15:23:59.820Z,9.00
2022-08-19T15:26:45.019Z,7.70
2022-08-19T15:29:30.169Z,6.38
2022-08-19T15:32:15.441Z,5.93
2022-08-19T15:35:02.434Z,7.10
2022-08-19T15:37:51.131Z,5.03
2022-08-19T15:40:36.384Z,8.75
2022-08-19T15:43:22.286Z,8.25
2022-08-19T15:46:07.487Z,5.60
2022-08-19T15:48:55.952Z,4.05
2022-08-19T15:54:28.762Z,4.18
2022-08-19T15:57:22.821Z,7.15
2022-08-19T16:00:26.891Z,5.55
2022-08-19T16:03:33.061Z,7.68
2022-08-19T16:06:28.230Z,6.78
2022-08-19T16:09:14.172Z,5.97
2022-08-19T16:12:06.074Z,7.22
2022-08-19T16:14:51.019Z,10.57
2022-08-19T16:17:36.502Z,8.10
2022-08-19T16:20:22.239Z,7.47
2022-08-19T16:23:10.079Z,6.65
2022-08-19T16:25:55.289Z,6.65
2022-08-19T16:28:41.553Z,5.40
2022-08-19T16:31:27.459Z,7.60
2022-08-19T16:34:13.771Z,11.55
2022-08-19T16:36:58.716Z,8.80
2022-08-19T16:39:44.551Z,8.07
2022-08-19T16:42:29.636Z,9.82
2022-08-19T16:45:15.209Z,9.35
2022-08-19T16:48:00.727Z,7.07
2022-08-19T16:50:49.461Z,18.58
2022-08-19T16:56:21.425Z,9.48
2022-08-19T16:59:06.523Z,9.82
2022-08-19T17:01:52.321Z,8.48
2022-08-19T17:04:37.465Z,6.90
2022-08-19T17:07:22.706Z,6.72
2022-08-19T17:10:08.729Z,6.78
2022-08-19T17:12:54.827Z,5.15
2022-08-19T17:15:40.230Z,7.82
2022-08-19T17:18:26.180Z,7.30
2022-08-19T17:21:16.731Z,8.23
2022-08-19T17:24:04.930Z,6.50
2022-08-19T17:26:49.843Z,4.25
2022-08-19T17:29:34.871Z,6.75
2022-08-19T17:32:24.772Z,5.45
2022-08-19T17:35:10.941Z,9.48
2022-08-19T17:37:56.447Z,7.22
2022-08-19T17:40:43.050Z,16.88
2022-08-19T17:43:32.346Z,8.40
2022-08-19T17:46:20.293Z,12.52
2022-08-19T17:49:06.665Z,9.77
2022-08-19T17:51:53.398Z,6.55
2022-08-19T17:54:38.781Z,8.15
2022-08-19T17:57:24.455Z,7.38
2022-08-19T18:00:15.972Z,6.60
2022-08-19T18:03:04.729Z,10.10
2022-08-19T18:05:51.313Z,10.80
2022-08-19T18:08:38.910Z,9.98
2022-08-19T18:11:24.374Z,8.65
2022-08-19T18:14:09.646Z,12.43
2022-08-19T18:16:58.141Z,8.63
2022-08-19T18:19:44.359Z,7.32
2022-08-19T18:22:36.919Z,10.40
2022-08-19T18:25:25.758Z,8.00
2022-08-19T18:28:10.710Z,8.48
2022-08-19T18:30:56.390Z,7.88
2022-08-19T18:33:44.173Z,8.50
2022-08-19T18:36:52.515Z,8.47
2022-08-19T18:39:53.881Z,9.30
2022-08-19T18:43:22.868Z,7.30
2022-08-19T18:46:26.743Z,7.57
2022-08-19T18:49:30.690Z,8.48
2022-08-19T18:52:15.933Z,6.28
2022-08-19T18:55:01.638Z,11.98
2022-08-19T18:57:46.689Z,10.80
2022-08-19T19:00:32.158Z,11.80
2022-08-19T19:03:17.289Z,11.25
2022-08-19T19:06:03.617Z,8.48
2022-08-19T19:08:50.253Z,12.35
2022-08-19T19:11:39.158Z,11.88
2022-08-19T19:14:48.183Z,8.27
2022-08-19T19:17:34.617Z,15.65
2022-08-19T19:20:19.930Z,9.48
2022-08-19T19:23:05.069Z,9.70
2022-08-19T19:25:52.304Z,11.30
2022-08-19T19:28:43.577Z,9.20
2022-08-19T19:31:28.828Z,5.10
2022-08-19T19:34:28.893Z,10.38
2022-08-19T19:37:16.249Z,11.77
2022-08-19T19:40:01.614Z,13.38
2022-08-19T19:42:48.103Z,13.05
2022-08-19T19:45:33.484Z,13.13
2022-08-19T19:48:18.397Z,11.95
2022-08-19T19:51:04.450Z,11.15
2022-08-19T19:53:49.548Z,7.72
2022-08-19T19:56:35.348Z,12.85
2022-08-19T19:59:20.718Z,14.45
2022-08-19T20:02:06.303Z,7.50
2022-08-19T20:04:52.871Z,10.13
2022-08-19T20:07:57.488Z,8.05
2022-08-19T20:10:43.733Z,10.38
2022-08-19T20:13:29.484Z,9.57
2022-08-19T20:16:14.498Z,9.55
2022-08-19T20:19:01.890Z,10.90
2022-08-19T20:21:51.419Z,8.70
2022-08-19T20:24:37.222Z,11.20
2022-08-19T20:27:23.589Z,20.17
2022-08-19T20:30:19.500Z,11.02
2022-08-19T20:33:08.345Z,10.00
2022-08-19T20:35:53.969Z,12.77
2022-08-19T20:38:39.622Z,8.95
2022-08-19T20:41:24.822Z,12.00
2022-08-19T20:44:10.103Z,11.77
2022-08-19T20:46:58.388Z,11.27
2022-08-19T20:49:45.749Z,9.30
2022-08-19T20:52:31.256Z,15.20
2022-08-19T20:55:16.537Z,9.75
2022-08-19T20:58:03.941Z,8.20
2022-08-19T21:00:49.902Z,10.38
2022-08-19T21:03:42.495Z,8.23
2022-08-19T21:06:28.456Z,14.98
2022-08-19T21:09:14.986Z,9.23
2022-08-19T21:12:00.092Z,12.75
2022-08-19T21:14:45.645Z,13.15
2022-08-19T21:17:31.419Z,11.73
2022-08-19T21:20:16.458Z,7.60
2022-08-19T21:23:06.787Z,8.05
2022-08-19T21:25:54.547Z,10.98
2022-08-19T21:28:40.130Z,11.77
2022-08-19T21:31:25.333Z,8.60
2022-08-19T21:34:10.595Z,9.25
2022-08-19T21:36:55.588Z,13.48
2022-08-19T21:39:40.695Z,10.80
2022-08-19T21:42:25.796Z,9.23
2022-08-19T21:45:12.164Z,12.73
2022-08-19T21:47:57.063Z,15.70
2022-08-19T21:50:44.412Z,10.57
2022-08-19T21:53:34.584Z,8.23
2022-08-19T21:56:20.133Z,9.60
2022-08-19T21:59:05.264Z,10.10
2022-08-19T22:02:05.648Z,8.40
2022-08-19T22:04:57.226Z,9.40
2022-08-19T22:07:42.824Z,8.50
2022-08-19T22:10:31.210Z,12.82
2022-08-19T22:13:18.231Z,10.43
2022-08-19T22:16:04.349Z,12.48
2022-08-19T22:18:54.325Z,11.13
2022-08-19T22:21:41.261Z,7.75
2022-08-19T22:24:27.019Z,9.45
2022-08-19T22:27:12.341Z,9.32
2022-08-19T22:29:58.290Z,7.93
2022-08-19T22:32:48.829Z,7.55
2022-08-19T22:35:42.778Z,8.52
2022-08-19T22:38:28.202Z,6.90
2022-08-19T22:41:13.453Z,9.35
2022-08-19T22:43:59.074Z,8.88
2022-08-19T22:46:44.169Z,7.70
2022-08-19T22:49:29.372Z,7.28
2022-08-19T22:52:19.245Z,15.25
2022-08-19T22:55:06.804Z,10.40
2022-08-19T22:57:53.432Z,8.35
2022-08-19T23:00:38.644Z,7.50
2022-08-19T23:03:25.258Z,6.80
2022-08-19T23:06:10.770Z,7.30
2022-08-19T23:08:56.763Z,6.45
2022-08-19T23:11:42.383Z,6.38
2022-08-19T23:14:28.104Z,6.90
2022-08-19T23:17:13.065Z,5.05
2022-08-19T23:19:59.825Z,4.78
2022-08-19T23:22:49.551Z,5.60
2022-08-19T23:25:36.506Z,3.85
2022-08-19T23:28:41.190Z,6.25
2022-08-19T23:31:26.799Z,10.00
2022-08-19T23:34:11.881Z,4.13
2022-08-19T23:36:56.716Z,5.50
2022-08-19T23:39:41.610Z,6.57
2022-08-19T23:42:28.853Z,6.63
2022-08-19T23:45:14.771Z,5.83
2022-08-19T23:48:07.852Z,3.90
2022-08-19T23:50:53.422Z,5.75
2022-08-19T23:53:40.424Z,8.05
2022-08-19T23:56:25.576Z,4.75
2022-08-19T23:59:10.965Z,4.93
